Terminal Aerodrome Forecast
Issued by NWS

Home | Current Version | Previous Version | Text Only | Print | Product List | Glossary On
Versions: 1 2 3 4 5 6 7 8 9 10 11 12 13 14 15 16 17 18 19 20 21 22 23 24 25 26 27 28 29 30 31 32 33 34 35 36 37 38 39 40 41 42 43 44 45 46 47 48 49 50
000
FTUS43 KMKX 011313 AAB
TAFENW
TAF AMD
KENW 011313Z 0113/0212 36006KT P6SM VCSH BKN013 BKN045 OVC060
     FM011400 04007KT 6SM BR VCSH SCT005 OVC008
     FM011600 04008KT 6SM -RA SCT008 OVC015
     FM012100 04008KT P6SM VCSH SCT008 OVC010
     FM020300 36004KT P6SM SCT008 OVC010
     FM020400 35004KT 5SM -DZ BR SCT008 OVC010
     FM020900 VRB03KT 3SM -DZ BR BKN010 OVC020=

USA.gov is the U.S. government's official web portal to all federal, state and local government web resources and services.